createdAt,value
2023-01-28T00:00:59.091Z,26.23
2023-01-28T00:03:25.964Z,6.32
2023-01-28T00:05:54.343Z,5.82
2023-01-28T00:08:21.189Z,5.35
2023-01-28T00:10:48.066Z,6.68
2023-01-28T00:13:15.052Z,4.15
2023-01-28T00:15:42.504Z,3.92
2023-01-28T00:18:09.418Z,4.82
2023-01-28T00:20:36.660Z,4.38
2023-01-28T00:23:06.443Z,3.83
2023-01-28T00:25:33.341Z,4.88
2023-01-28T00:28:00.248Z,4.40
2023-01-28T00:30:27.074Z,4.55
2023-01-28T00:32:55.226Z,3.63
2023-01-28T00:35:22.072Z,2.78
2023-01-28T00:37:49.010Z,3.45
2023-01-28T00:40:16.101Z,2.80
2023-01-28T00:42:43.038Z,4.93
2023-01-28T00:45:10.258Z,2.70
2023-01-28T00:47:37.878Z,3.20
2023-01-28T00:50:05.302Z,3.60
2023-01-28T00:52:32.368Z,3.15
2023-01-28T00:54:59.249Z,4.03
2023-01-28T00:57:27.007Z,3.47
2023-01-28T00:59:53.991Z,4.25
2023-01-28T01:02:22.182Z,3.85
2023-01-28T01:05:01.405Z,3.95
2023-01-28T01:07:41.964Z,3.50
2023-01-28T01:10:15.089Z,5.15
2023-01-28T01:12:42.149Z,4.90
2023-01-28T01:15:10.565Z,4.57
2023-01-28T01:17:42.720Z,3.40
2023-01-28T01:20:15.480Z,6.13
2023-01-28T01:22:42.489Z,4.20
2023-01-28T01:25:14.678Z,4.88
2023-01-28T01:27:42.557Z,4.28
2023-01-28T01:30:10.664Z,4.82
2023-01-28T01:32:37.542Z,4.70
2023-01-28T01:35:06.891Z,5.25
2023-01-28T01:37:35.512Z,6.18
2023-01-28T01:40:05.149Z,6.22
2023-01-28T01:42:33.338Z,5.88
2023-01-28T01:45:06.261Z,7.43
2023-01-28T01:47:49.281Z,5.85
2023-01-28T01:50:36.807Z,6.57
2023-01-28T01:53:11.652Z,7.95
2023-01-28T01:55:41.462Z,10.48
2023-01-28T01:58:13.746Z,5.40
2023-01-28T02:00:42.782Z,6.50
2023-01-28T02:03:11.464Z,6.05
2023-01-28T02:05:39.611Z,4.68
2023-01-28T02:08:22.101Z,5.30
2023-01-28T02:10:53.254Z,4.85
2023-01-28T02:13:25.392Z,7.10
2023-01-28T02:15:53.248Z,5.50
2023-01-28T02:18:20.260Z,5.78
2023-01-28T02:21:09.139Z,5.68
2023-01-28T02:24:03.164Z,6.00
2023-01-28T02:27:17.905Z,6.65
2023-01-28T02:30:14.609Z,5.32
2023-01-28T02:32:53.678Z,7.40
2023-01-28T02:35:26.563Z,6.07
2023-01-28T02:38:15.373Z,5.97
2023-01-28T02:41:09.013Z,6.68
2023-01-28T02:43:40.672Z,4.75
2023-01-28T02:46:35.306Z,5.97
2023-01-28T02:49:05.859Z,5.80
2023-01-28T02:51:51.085Z,5.18
2023-01-28T02:54:47.139Z,4.47
2023-01-28T02:57:47.353Z,6.07
2023-01-28T03:00:32.955Z,5.30
2023-01-28T03:03:07.477Z,5.85
2023-01-28T03:08:27.937Z,5.05
2023-01-28T03:11:17.492Z,6.25
2023-01-28T03:28:37.322Z,6.53
2023-01-28T03:31:30.494Z,9.27
2023-01-28T03:34:19.314Z,6.32
2023-01-28T03:36:50.845Z,9.30
2023-01-28T03:39:38.798Z,5.38
2023-01-28T03:42:12.036Z,7.45
2023-01-28T03:45:04.203Z,7.38
2023-01-28T03:47:33.364Z,6.35
2023-01-28T03:50:02.786Z,7.93
2023-01-28T03:52:35.634Z,6.55
2023-01-28T03:55:25.836Z,11.70
2023-01-28T03:57:53.308Z,6.90
2023-01-28T04:00:22.057Z,8.32
2023-01-28T04:02:49.718Z,7.63
2023-01-28T04:05:20.403Z,7.72
2023-01-28T04:07:51.705Z,8.43
2023-01-28T04:10:26.145Z,6.80
2023-01-28T04:13:04.246Z,9.38
2023-01-28T04:15:31.316Z,6.07
2023-01-28T04:17:58.980Z,7.57
2023-01-28T04:20:29.797Z,8.13
2023-01-28T04:22:59.450Z,8.38
2023-01-28T04:25:26.575Z,6.35
2023-01-28T04:27:54.261Z,6.80
2023-01-28T04:30:23.262Z,6.78
2023-01-28T04:33:16.610Z,7.10
2023-01-28T04:35:54.855Z,6.95
2023-01-28T04:38:40.166Z,7.05
2023-01-28T04:41:27.276Z,12.93
2023-01-28T04:43:58.070Z,12.02
2023-01-28T04:46:45.216Z,5.53
2023-01-28T04:49:44.388Z,7.72
2023-01-28T04:52:26.487Z,5.68
2023-01-28T04:55:04.734Z,5.82
2023-01-28T04:57:31.557Z,6.28
2023-01-28T04:59:58.855Z,6.90
2023-01-28T05:02:27.116Z,4.55
2023-01-28T05:04:54.110Z,6.38
2023-01-28T05:07:42.467Z,6.15
2023-01-28T05:10:10.187Z,5.55
2023-01-28T05:12:37.463Z,5.75
2023-01-28T05:15:08.197Z,7.40
2023-01-28T05:17:35.687Z,5.72
2023-01-28T05:20:02.570Z,6.80
2023-01-28T05:22:29.477Z,6.55
2023-01-28T05:25:10.689Z,7.38
2023-01-28T05:27:38.150Z,7.93
2023-01-28T05:30:06.885Z,5.82
2023-01-28T05:32:33.918Z,5.55
2023-01-28T05:35:00.861Z,6.68
2023-01-28T05:37:28.067Z,7.38
2023-01-28T05:39:56.525Z,8.23
2023-01-28T05:42:23.376Z,7.20
2023-01-28T05:44:55.671Z,7.03
2023-01-28T05:47:38.897Z,6.80
2023-01-28T05:50:38.032Z,8.02
2023-01-28T05:53:18.471Z,8.93
2023-01-28T05:55:51.191Z,7.38
2023-01-28T05:58:18.301Z,7.85
2023-01-28T06:00:45.248Z,8.60
2023-01-28T06:03:13.323Z,9.65
2023-01-28T06:05:40.356Z,6.65
2023-01-28T06:08:07.703Z,8.50
2023-01-28T06:10:35.997Z,8.82
2023-01-28T06:13:03.005Z,8.27
2023-01-28T06:15:35.541Z,7.57
2023-01-28T06:18:11.975Z,6.25
2023-01-28T06:20:38.831Z,6.63
2023-01-28T06:23:06.521Z,8.30
2023-01-28T06:25:33.406Z,11.10
2023-01-28T06:28:06.366Z,7.47
2023-01-28T06:30:33.403Z,7.97
2023-01-28T06:33:00.411Z,8.00
2023-01-28T06:35:27.707Z,9.55
2023-01-28T06:37:54.711Z,9.45
2023-01-28T06:40:23.129Z,8.05
2023-01-28T06:42:50.090Z,8.93
2023-01-28T06:45:17.032Z,9.65
2023-01-28T06:47:43.905Z,10.23
2023-01-28T06:50:11.367Z,8.65
2023-01-28T06:52:38.202Z,9.20
2023-01-28T06:55:05.377Z,7.05
2023-01-28T06:57:32.475Z,8.65
2023-01-28T06:59:59.316Z,7.47
2023-01-28T07:02:27.743Z,8.80
2023-01-28T07:04:54.720Z,8.23
2023-01-28T07:07:21.538Z,7.65
2023-01-28T07:09:48.392Z,12.45
2023-01-28T07:12:15.769Z,7.85
2023-01-28T07:14:42.635Z,8.35
2023-01-28T07:17:09.690Z,9.75
2023-01-28T07:19:36.841Z,7.95
2023-01-28T07:22:04.182Z,8.60
2023-01-28T07:24:31.511Z,7.15
2023-01-28T07:26:58.402Z,10.15
2023-01-28T07:29:25.314Z,8.80
2023-01-28T07:31:52.280Z,8.55
2023-01-28T07:34:19.057Z,12.50
2023-01-28T07:36:45.943Z,9.95
2023-01-28T07:39:12.813Z,8.82
2023-01-28T07:41:39.704Z,12.18
2023-01-28T07:44:07.260Z,7.65
2023-01-28T07:46:34.263Z,12.20
2023-01-28T07:49:01.168Z,13.00
2023-01-28T07:51:27.905Z,12.95
2023-01-28T07:53:54.763Z,10.90
2023-01-28T07:56:21.699Z,12.93
2023-01-28T07:58:51.643Z,10.50
2023-01-28T08:01:19.784Z,11.10
2023-01-28T08:03:46.686Z,10.15
2023-01-28T08:06:13.561Z,16.42
2023-01-28T08:08:40.410Z,12.38
2023-01-28T08:11:09.029Z,13.77
2023-01-28T08:13:35.880Z,9.48
2023-01-28T08:16:03.282Z,15.48
2023-01-28T08:18:30.648Z,11.25
2023-01-28T08:20:58.642Z,11.43
2023-01-28T08:23:30.404Z,12.65
2023-01-28T08:25:59.350Z,10.07
2023-01-28T08:28:26.616Z,12.60
2023-01-28T08:30:54.172Z,10.77
2023-01-28T08:33:21.321Z,15.35
2023-01-28T08:35:48.182Z,16.55
2023-01-28T08:38:18.091Z,14.20
2023-01-28T08:40:44.973Z,13.65
2023-01-28T08:43:11.912Z,13.38
2023-01-28T08:45:40.639Z,12.43
2023-01-28T08:48:11.795Z,14.30
2023-01-28T08:50:39.631Z,15.05
2023-01-28T08:53:10.330Z,14.43
2023-01-28T08:55:37.192Z,12.05
2023-01-28T08:58:11.255Z,15.07
2023-01-28T09:00:38.821Z,18.02
2023-01-28T09:03:06.453Z,14.02
2023-01-28T09:05:35.181Z,11.75
2023-01-28T09:08:06.760Z,14.13
2023-01-28T09:10:35.235Z,10.65
2023-01-28T09:13:09.679Z,11.38
2023-01-28T09:18:03.664Z,13.00
2023-01-28T09:20:32.395Z,12.30
2023-01-28T09:23:00.932Z,11.27
2023-01-28T09:25:28.009Z,13.55
2023-01-28T09:27:54.943Z,12.57
2023-01-28T09:30:22.252Z,10.63
2023-01-28T09:32:56.207Z,11.75
2023-01-28T09:35:23.116Z,13.48
2023-01-28T09:37:52.027Z,13.52
2023-01-28T09:40:35.115Z,13.25
2023-01-28T09:43:08.833Z,13.65
2023-01-28T09:45:46.001Z,16.35
2023-01-28T09:48:30.957Z,15.20
2023-01-28T09:50:58.251Z,17.85
2023-01-28T09:53:30.676Z,16.00
2023-01-28T09:56:14.574Z,17.65
2023-01-28T09:58:43.015Z,15.63
2023-01-28T10:01:09.995Z,13.63
2023-01-28T10:04:14.280Z,15.43
2023-01-28T10:06:41.153Z,16.08
2023-01-28T10:09:26.335Z,15.90
2023-01-28T10:12:21.296Z,13.93
2023-01-28T10:15:09.656Z,13.93
2023-01-28T10:17:50.073Z,12.80
2023-01-28T10:20:31.051Z,12.77
2023-01-28T10:23:16.632Z,15.40
2023-01-28T10:25:48.462Z,22.88
2023-01-28T10:28:28.358Z,14.68
2023-01-28T10:30:55.721Z,14.00
2023-01-28T10:33:37.434Z,15.32
2023-01-28T10:36:05.076Z,20.83
2023-01-28T10:38:32.312Z,16.67
2023-01-28T10:41:02.649Z,17.05
2023-01-28T10:43:35.573Z,14.75
2023-01-28T10:46:08.332Z,15.05
2023-01-28T10:49:01.295Z,18.25
2023-01-28T10:51:38.256Z,14.70
2023-01-28T10:54:21.080Z,14.50
2023-01-28T10:56:52.172Z,15.82
2023-01-28T10:59:27.316Z,17.73
2023-01-28T11:01:57.966Z,15.15
2023-01-28T11:04:33.617Z,18.17
2023-01-28T11:07:16.931Z,21.40
2023-01-28T11:09:49.192Z,14.18
2023-01-28T11:12:24.069Z,15.70
2023-01-28T11:14:53.641Z,16.13
2023-01-28T11:17:24.780Z,19.15
2023-01-28T11:19:58.400Z,15.23
2023-01-28T11:22:25.148Z,17.37
2023-01-28T11:24:52.228Z,17.45
2023-01-28T11:27:26.678Z,19.33
2023-01-28T11:32:26.943Z,19.70
2023-01-28T11:34:57.607Z,16.08
2023-01-28T11:37:26.350Z,16.63
2023-01-28T11:40:20.075Z,16.90
2023-01-28T11:42:49.162Z,16.83
2023-01-28T11:45:18.464Z,16.25
2023-01-28T11:48:03.806Z,18.00
2023-01-28T11:50:37.391Z,18.48
2023-01-28T11:53:46.341Z,18.90
2023-01-28T12:06:27.237Z,20.30
2023-01-28T12:09:00.746Z,18.40
2023-01-28T12:12:11.839Z,18.20
2023-01-28T12:14:57.048Z,19.77
2023-01-28T12:17:36.153Z,17.13
2023-01-28T12:20:19.973Z,23.48
2023-01-28T12:22:46.757Z,21.90
2023-01-28T12:25:37.151Z,16.35
2023-01-28T12:28:12.952Z,26.83
2023-01-28T12:31:07.304Z,21.27
2023-01-28T12:33:52.081Z,22.17
2023-01-28T12:39:13.755Z,23.45
2023-01-28T12:41:46.264Z,19.05
2023-01-28T12:44:27.032Z,19.08
2023-01-28T12:47:04.012Z,21.33
2023-01-28T12:50:06.551Z,19.20
2023-01-28T12:52:39.935Z,22.15
2023-01-28T12:55:25.364Z,20.08
2023-01-28T12:57:53.961Z,18.33
2023-01-28T13:00:45.482Z,22.10
2023-01-28T13:03:38.907Z,18.55
2023-01-28T13:06:15.704Z,21.00
2023-01-28T13:08:42.708Z,20.92
2023-01-28T13:11:17.323Z,21.60
2023-01-28T13:13:46.800Z,20.73
2023-01-28T13:16:14.048Z,21.92
2023-01-28T13:18:41.019Z,23.63
2023-01-28T13:21:47.524Z,28.63
2023-01-28T13:24:15.652Z,23.23
2023-01-28T13:26:59.011Z,24.58
2023-01-28T13:29:26.171Z,18.08
2023-01-28T13:32:02.970Z,17.77
2023-01-28T13:34:44.330Z,20.05
2023-01-28T13:37:37.956Z,21.08
2023-01-28T13:40:13.696Z,19.52
2023-01-28T13:42:42.010Z,21.30
2023-01-28T13:45:18.057Z,18.40
2023-01-28T13:47:48.264Z,20.50
2023-01-28T13:50:40.136Z,20.75
2023-01-28T13:53:25.319Z,19.08
2023-01-28T13:55:57.568Z,21.90
2023-01-28T13:58:45.582Z,19.23
2023-01-28T14:01:32.605Z,20.63
2023-01-28T14:04:39.556Z,20.08
2023-01-28T14:07:29.622Z,18.95
2023-01-28T14:10:39.557Z,22.17
2023-01-28T14:13:21.599Z,20.98
2023-01-28T14:16:52.627Z,23.15
2023-01-28T14:19:27.616Z,21.45
2023-01-28T14:21:55.058Z,21.10
2023-01-28T14:24:22.413Z,24.35
2023-01-28T14:27:15.360Z,20.58
2023-01-28T14:30:03.590Z,24.75
2023-01-28T14:32:31.835Z,20.60
2023-01-28T14:35:05.567Z,21.05
2023-01-28T14:37:33.342Z,21.85
2023-01-28T14:40:06.510Z,27.60
2023-01-28T14:42:39.684Z,21.10
2023-01-28T14:45:38.927Z,17.75
2023-01-28T14:48:25.593Z,20.65
2023-01-28T14:51:08.351Z,30.05
2023-01-28T14:54:09.540Z,24.42
2023-01-28T14:57:00.730Z,21.95
2023-01-28T14:59:44.200Z,25.67
2023-01-28T15:02:22.907Z,23.75
2023-01-28T15:04:51.536Z,18.80
2023-01-28T15:07:24.556Z,21.10
2023-01-28T15:10:15.998Z,21.50
2023-01-28T15:12:48.034Z,24.92
2023-01-28T15:15:36.600Z,20.40
2023-01-28T15:30:27.577Z,19.63
2023-01-28T15:33:02.064Z,18.27
2023-01-28T15:37:57.027Z,20.52
2023-01-28T15:40:26.050Z,22.55
2023-01-28T15:42:55.406Z,20.75
2023-01-28T15:45:25.707Z,17.60
2023-01-28T15:48:02.861Z,25.20
2023-01-28T15:50:29.915Z,22.00
2023-01-28T15:52:57.097Z,25.88
2023-01-28T15:55:29.842Z,30.52
2023-01-28T15:57:57.080Z,24.92
2023-01-28T16:00:25.839Z,18.50
2023-01-28T16:02:55.315Z,22.45
2023-01-28T16:05:34.717Z,22.75
2023-01-28T16:08:10.280Z,22.60
2023-01-28T16:10:37.809Z,22.00
2023-01-28T16:13:20.360Z,24.50
2023-01-28T16:15:50.288Z,23.92
2023-01-28T16:18:37.548Z,19.25
2023-01-28T16:21:05.423Z,23.63
2023-01-28T16:23:32.327Z,23.98
2023-01-28T16:26:23.065Z,19.10
2023-01-28T16:28:50.099Z,22.60
2023-01-28T16:31:17.484Z,25.80
2023-01-28T16:33:44.545Z,29.58
2023-01-28T16:36:18.225Z,26.48
2023-01-28T16:38:45.877Z,27.30
2023-01-28T16:41:16.086Z,24.02
2023-01-28T16:43:42.931Z,22.50
2023-01-28T16:46:12.587Z,21.23
2023-01-28T16:48:39.620Z,22.33
2023-01-28T16:51:06.743Z,25.13
2023-01-28T16:53:34.562Z,25.15
2023-01-28T16:56:02.636Z,24.02
2023-01-28T16:58:29.757Z,27.85
2023-01-28T17:00:56.993Z,23.20
2023-01-28T17:03:24.899Z,26.40
2023-01-28T17:05:51.825Z,22.92
2023-01-28T17:08:18.834Z,22.05
2023-01-28T17:10:45.868Z,30.38
2023-01-28T17:13:12.808Z,30.25
2023-01-28T17:15:39.711Z,30.20
2023-01-28T17:18:06.677Z,21.63
2023-01-28T17:20:37.534Z,29.73
2023-01-28T17:23:07.131Z,28.73
2023-01-28T17:25:39.079Z,30.73
2023-01-28T17:28:07.107Z,30.98
2023-01-28T17:30:36.913Z,30.30
2023-01-28T17:33:04.781Z,30.13
2023-01-28T17:35:31.650Z,26.27
2023-01-28T17:37:58.554Z,28.75
2023-01-28T17:40:25.622Z,25.17
2023-01-28T17:42:52.654Z,28.13
2023-01-28T17:45:19.593Z,23.42
2023-01-28T17:47:46.513Z,20.42
2023-01-28T17:50:13.409Z,22.38
2023-01-28T17:52:41.236Z,18.80
2023-01-28T17:55:10.384Z,24.55
2023-01-28T17:57:37.372Z,26.45
2023-01-28T18:00:06.060Z,21.95
2023-01-28T18:05:06.227Z,18.23
2023-01-28T18:07:33.123Z,23.40
2023-01-28T18:10:00.242Z,23.20
2023-01-28T18:12:27.315Z,26.83
2023-01-28T18:14:54.193Z,25.80
2023-01-28T18:17:26.738Z,28.35
2023-01-28T18:19:53.793Z,32.10
2023-01-28T18:22:20.738Z,31.92
2023-01-28T18:24:47.985Z,29.33
2023-01-28T18:27:14.959Z,30.10
2023-01-28T18:29:41.819Z,29.15
2023-01-28T18:32:08.889Z,26.63
2023-01-28T18:34:35.993Z,32.58
2023-01-28T18:37:03.760Z,32.97
2023-01-28T18:39:31.210Z,34.03
2023-01-28T18:41:59.147Z,29.10
2023-01-28T18:44:28.334Z,33.58
2023-01-28T18:46:56.293Z,42.22
2023-01-28T18:49:23.223Z,33.40
2023-01-28T18:51:50.186Z,32.65
2023-01-28T18:54:17.388Z,34.38
2023-01-28T18:56:44.993Z,32.05
2023-01-28T18:59:13.996Z,28.90
2023-01-28T19:01:47.990Z,26.90
2023-01-28T19:04:15.819Z,31.30
2023-01-28T19:06:43.284Z,29.73
2023-01-28T19:09:11.505Z,31.85
2023-01-28T19:11:40.745Z,33.75
2023-01-28T19:14:13.446Z,36.17
2023-01-28T19:16:40.529Z,37.40
2023-01-28T19:19:07.873Z,35.17
2023-01-28T19:21:35.024Z,31.35
2023-01-28T19:24:09.355Z,34.35
2023-01-28T19:26:37.037Z,34.60
2023-01-28T19:29:07.805Z,33.35
2023-01-28T19:31:34.981Z,35.28
2023-01-28T19:34:01.934Z,30.25
2023-01-28T19:36:31.428Z,27.23
2023-01-28T19:39:04.863Z,31.30
2023-01-28T19:41:32.036Z,27.45
2023-01-28T19:43:59.440Z,24.50
2023-01-28T19:46:26.890Z,29.02
2023-01-28T19:48:54.106Z,24.08
2023-01-28T19:51:21.782Z,21.73
2023-01-28T19:53:54.259Z,21.92
2023-01-28T19:56:23.972Z,23.83
2023-01-28T19:58:53.148Z,20.27
2023-01-28T20:01:29.529Z,22.40
2023-01-28T20:03:59.345Z,23.77
2023-01-28T20:06:28.303Z,19.95
2023-01-28T20:08:58.511Z,21.60
2023-01-28T20:11:25.713Z,20.88
2023-01-28T20:13:56.024Z,23.42
2023-01-28T20:16:28.708Z,22.75
2023-01-28T20:18:57.875Z,22.25
2023-01-28T20:21:25.552Z,25.38
2023-01-28T20:23:54.770Z,23.00
2023-01-28T20:26:33.137Z,24.17
2023-01-28T20:29:02.612Z,21.13
2023-01-28T20:31:29.706Z,22.33
2023-01-28T20:33:56.665Z,27.20
2023-01-28T20:36:23.522Z,26.45
2023-01-28T20:38:50.383Z,27.20
2023-01-28T20:41:23.351Z,24.85
2023-01-28T20:43:51.788Z,23.58
2023-01-28T20:46:27.875Z,22.50
2023-01-28T20:48:56.662Z,30.55
2023-01-28T20:51:25.836Z,23.30
2023-01-28T20:53:53.720Z,24.98
2023-01-28T20:56:25.414Z,28.98
2023-01-28T20:58:59.638Z,19.65
2023-01-28T21:01:29.588Z,27.17
2023-01-28T21:03:56.999Z,25.98
2023-01-28T21:06:25.149Z,21.77
2023-01-28T21:08:53.239Z,23.95
2023-01-28T21:11:21.998Z,25.60
2023-01-28T21:13:49.082Z,25.15
2023-01-28T21:16:16.348Z,23.73
2023-01-28T21:18:43.356Z,22.10
2023-01-28T21:21:17.930Z,24.38
2023-01-28T21:26:11.687Z,19.83
2023-01-28T21:28:38.993Z,19.60
2023-01-28T21:31:11.361Z,23.02
2023-01-28T21:33:38.753Z,20.27
2023-01-28T21:36:11.142Z,19.13
2023-01-28T21:38:38.384Z,17.98
2023-01-28T21:41:06.009Z,21.75
2023-01-28T21:43:33.630Z,18.98
2023-01-28T21:46:01.498Z,19.98
2023-01-28T21:48:28.531Z,21.25
2023-01-28T21:51:14.116Z,18.40
2023-01-28T21:53:42.032Z,20.00
2023-01-28T21:56:10.038Z,19.15
2023-01-28T21:58:56.855Z,19.75
2023-01-28T22:01:23.868Z,19.70
2023-01-28T22:03:50.676Z,21.30
2023-01-28T22:06:17.712Z,20.13
2023-01-28T22:08:45.658Z,18.13
2023-01-28T22:11:12.479Z,19.02
2023-01-28T22:13:39.625Z,19.98
2023-01-28T22:16:06.960Z,17.88
2023-01-28T22:18:33.901Z,19.60
2023-01-28T22:21:06.406Z,18.13
2023-01-28T22:23:35.188Z,16.88
2023-01-28T22:26:02.647Z,20.40
2023-01-28T22:28:29.781Z,18.88
2023-01-28T22:31:06.638Z,20.20
2023-01-28T22:33:33.838Z,18.25
2023-01-28T22:36:01.433Z,18.08
2023-01-28T22:38:28.287Z,20.58
2023-01-28T22:40:55.136Z,19.13
2023-01-28T22:43:22.736Z,15.38
2023-01-28T22:45:58.116Z,17.50
2023-01-28T22:48:25.010Z,18.27
2023-01-28T22:50:52.841Z,19.35
2023-01-28T22:53:19.705Z,19.23
2023-01-28T22:55:50.883Z,17.15
2023-01-28T22:58:17.788Z,20.58
2023-01-28T23:00:44.660Z,20.73
2023-01-28T23:03:11.540Z,18.13
2023-01-28T23:05:38.628Z,15.70
2023-01-28T23:08:14.062Z,17.95
2023-01-28T23:10:53.172Z,19.85
2023-01-28T23:13:21.502Z,18.15
2023-01-28T23:16:08.412Z,18.70
2023-01-28T23:18:42.013Z,18.65
2023-01-28T23:21:44.053Z,19.67
2023-01-28T23:24:19.137Z,21.38
2023-01-28T23:26:57.016Z,16.90
2023-01-28T23:29:26.066Z,18.80
2023-01-28T23:31:56.373Z,19.67
2023-01-28T23:34:26.115Z,18.45
2023-01-28T23:36:53.032Z,18.02
2023-01-28T23:39:19.947Z,17.40
2023-01-28T23:41:46.756Z,18.85
2023-01-28T23:44:13.664Z,19.00
2023-01-28T23:46:40.641Z,17.00
2023-01-28T23:49:09.813Z,17.52
2023-01-28T23:51:36.678Z,19.30
2023-01-28T23:54:04.234Z,17.52
2023-01-28T23:56:31.053Z,15.07
2023-01-28T23:58:59.971Z,14.80
